Terminal Aerodrome Forecast
Issued by NWS Brownsville, TX

Home | Current Version | Previous Version | Text Only | Print | Product List | Glossary On
Versions: 1 2 3 4 5 6 7 8 9 10 11 12 13 14
000
FTUS44 KBRO 270523
TAFMFE
TAF
KMFE 270523Z 2706/2806 30005KT P6SM SCT250
     FM271600 01007KT P6SM SKC
     FM272300 05008KT P6SM SCT050=

USA.gov is the U.S. government's official web portal to all federal, state and local government web resources and services.